Time;durP1;ratioP1;P1;durP2;ratioP2;P2;SDS_P1;SDS_P2;PMS_P1;PMS_P2;Temp;Humidity;BMP_temperature;BMP_pressure;BME280_temperature;BME280_humidity;BME280_pressure;Samples;Min_cycle;Max_cycle;Signal;HPM_P1;HPM_P2
2021/06/02 00:02:08;;;;;;;3.40;1.97;;;;;;;-144.99;63.58;52207.59;5070650;28;20639;-64
2021/06/02 00:04:42;;;;;;;4.47;2.23;;;;;;;-144.99;63.82;52166.81;5066955;28;20235;-62
2021/06/02 00:07:19;;;;;;;4.23;2.27;;;;;;;-144.99;64.03;52181.09;5069606;28;20243;-62
2021/06/02 00:09:46;;;;;;;5.00;2.27;;;;;;;-144.99;64.25;52187.19;5071695;28;20216;-64
2021/06/02 00:12:16;;;;;;;8.87;3.87;;;;;;;-144.99;64.69;52183.13;5070349;28;20209;-62
2021/06/02 00:14:44;;;;;;;6.83;3.43;;;;;;;-144.99;64.98;52177.00;5069634;28;20696;-62
2021/06/02 00:17:11;;;;;;;5.77;2.57;;;;;;;-144.99;65.06;52174.97;5070841;28;20247;-63
2021/06/02 00:19:37;;;;;;;6.87;2.67;;;;;;;-144.99;65.19;52142.38;5069470;28;20232;-61
2021/06/02 00:22:08;;;;;;;5.73;2.60;;;;;;;-144.99;65.28;52187.19;5070120;28;20554;-60
2021/06/02 00:24:36;;;;;;;3.87;1.93;;;;;;;-144.99;65.41;52172.94;5067492;28;20209;-61
2021/06/02 00:27:12;;;;;;;3.97;3.00;;;;;;;-144.99;65.61;52183.13;5070270;28;20548;-60
2021/06/02 00:29:47;;;;;;;4.43;2.20;;;;;;;-144.99;65.62;52223.88;5069544;28;20288;-62
2021/06/02 00:32:15;;;;;;;4.20;2.17;;;;;;;-144.99;65.88;52170.91;5070323;28;20196;-61
2021/06/02 00:34:42;;;;;;;3.27;1.57;;;;;;;-144.99;65.88;52185.16;5067605;28;20220;-62
2021/06/02 00:37:09;;;;;;;3.50;2.13;;;;;;;-144.99;66.14;52195.34;5069254;28;20251;-61
2021/06/02 00:39:36;;;;;;;7.90;1.73;;;;;;;-144.99;66.42;52185.16;5069267;28;20216;-62
2021/06/02 00:42:05;;;;;;;3.53;1.93;;;;;;;-144.99;66.53;52181.09;5070325;28;20204;-60
2021/06/02 00:44:31;;;;;;;3.23;2.27;;;;;;;-144.99;66.77;52164.78;5069576;28;20197;-61
2021/06/02 00:47:02;;;;;;;3.40;1.67;;;;;;;-144.99;66.73;52201.47;5067816;28;20266;-62
2021/06/02 00:49:28;;;;;;;3.23;2.17;;;;;;;-144.99;67.01;52183.13;5069444;28;20209;-62
2021/06/02 00:51:56;;;;;;;4.40;1.87;;;;;;;-144.99;67.11;52215.75;5062661;28;20258;-61
2021/06/02 00:54:25;;;;;;;7.33;2.63;;;;;;;-144.99;67.45;52177.00;5069131;28;20225;-63
2021/06/02 00:56:53;;;;;;;3.57;2.60;;;;;;;-144.99;67.25;52211.66;5063568;28;20193;-62
2021/06/02 00:59:29;;;;;;;5.83;1.97;;;;;;;-144.99;67.31;52166.81;5068848;28;20212;-62
2021/06/02 01:02:00;;;;;;;3.13;1.90;;;;;;;-144.99;67.39;52191.28;5063574;28;20644;-63
2021/06/02 01:04:31;;;;;;;4.60;2.30;;;;;;;-144.99;67.69;52164.78;5069666;28;20217;-61
2021/06/02 01:06:57;;;;;;;2.63;1.70;;;;;;;-144.99;68.06;52203.50;5066111;28;20274;-61
2021/06/02 01:09:25;;;;;;;2.87;1.70;;;;;;;-144.99;68.08;52183.13;5068766;28;20542;-60
2021/06/02 01:11:52;;;;;;;3.07;1.50;;;;;;;-144.99;68.62;52174.97;5069153;28;20213;-61
2021/06/02 01:14:20;;;;;;;5.63;1.90;;;;;;;-144.99;69.19;52183.13;5068055;28;20285;-60
2021/06/02 01:16:50;;;;;;;3.63;2.57;;;;;;;-144.99;69.57;52174.97;5063639;28;20667;-61
2021/06/02 01:19:21;;;;;;;5.93;1.97;;;;;;;-144.99;69.71;52211.66;5065906;28;20667;-61
2021/06/02 01:21:56;;;;;;;3.53;2.23;;;;;;;-144.99;69.72;52158.66;5067855;28;20215;-62
2021/06/02 01:24:28;;;;;;;2.43;1.70;;;;;;;-144.99;69.80;52183.13;5068521;28;20200;-61
2021/06/02 01:27:00;;;;;;;4.77;1.97;;;;;;;-144.99;70.03;52156.63;5064828;28;20234;-60
2021/06/02 01:29:34;;;;;;;5.33;2.70;;;;;;;-144.99;70.00;52195.34;5066000;28;20208;-61
2021/06/02 01:32:32;;;;;;;5.13;2.00;;;;;;;-144.99;70.31;52187.19;5068942;28;20201;-61
2021/06/02 01:35:25;;;;;;;4.03;2.27;;;;;;;-144.99;70.46;52158.66;5051418;28;20304;-61
2021/06/02 01:38:26;;;;;;;3.97;1.63;;;;;;;-144.99;70.93;52140.31;5066717;28;20224;-61
2021/06/02 01:41:22;;;;;;;3.50;2.50;;;;;;;-144.99;71.42;52162.75;5061733;28;20684;-62
2021/06/02 01:44:17;;;;;;;3.80;2.30;;;;;;;-144.99;71.56;52183.13;5067918;28;20209;-60
2021/06/02 01:47:10;;;;;;;3.80;2.07;;;;;;;-144.99;71.80;52195.34;5067599;28;20277;-60
2021/06/02 01:49:58;;;;;;;2.03;1.50;;;;;;;-144.99;71.92;52195.34;5022966;28;20216;-60
2021/06/02 01:53:03;;;;;;;2.87;1.97;;;;;;;-144.99;72.04;52162.75;5068267;28;20201;-60
2021/06/02 01:56:03;;;;;;;5.87;1.67;;;;;;;-144.99;72.21;52146.44;5065754;28;20633;-61
2021/06/02 01:59:29;;;;;;;1.93;1.47;;;;;;;-144.99;72.17;52181.09;5065235;28;20229;-66
2021/06/02 02:02:21;;;;;;;4.57;1.90;;;;;;;-144.99;72.19;52130.13;5005983;28;20207;-69
2021/06/02 02:05:31;;;;;;;3.53;1.70;;;;;;;-144.99;72.03;52181.09;5057262;28;20208;-69
2021/06/02 02:08:30;;;;;;;2.50;1.30;;;;;;;-144.99;71.99;52191.28;5061906;28;20274;-69
2021/06/02 02:11:06;;;;;;;3.07;1.60;;;;;;;-144.99;71.83;52183.13;5055222;28;20208;-68
2021/06/02 02:13:57;;;;;;;2.63;1.30;;;;;;;-144.99;72.03;52146.44;5067568;28;20221;-68
2021/06/02 02:16:34;;;;;;;2.13;1.27;;;;;;;-144.99;71.98;52170.91;5064997;28;20632;-67
2021/06/02 02:19:27;;;;;;;2.17;1.53;;;;;;;-144.99;72.01;52211.66;5067979;28;20231;-66
2021/06/02 02:21:59;;;;;;;2.20;1.20;;;;;;;-144.99;72.45;52181.09;5063925;28;20197;-66
2021/06/02 02:24:31;;;;;;;2.60;1.30;;;;;;;-144.99;72.33;52183.13;5067210;28;20205;-65
2021/06/02 02:27:22;;;;;;;5.30;1.13;;;;;;;-144.99;72.28;52152.56;5068051;28;20664;-65
2021/06/02 02:29:56;;;;;;;6.20;1.60;;;;;;;-144.99;72.61;52207.59;5066135;28;20197;-64
2021/06/02 02:33:00;;;;;;;2.00;1.50;;;;;;;-144.99;72.45;52211.66;5065337;28;20231;-66
2021/06/02 02:35:46;;;;;;;2.13;1.40;;;;;;;-144.99;72.54;52172.94;5067655;28;20577;-69
2021/06/02 02:38:28;;;;;;;2.03;1.30;;;;;;;-144.99;72.85;52203.50;5060862;28;20697;-68
2021/06/02 02:41:04;;;;;;;2.57;1.37;;;;;;;-144.99;72.95;52187.19;5063336;28;20304;-69
2021/06/02 02:43:54;;;;;;;4.53;1.30;;;;;;;-144.99;72.79;52203.50;5069949;28;20211;-69
2021/06/02 02:46:26;;;;;;;8.07;1.90;;;;;;;-144.99;72.96;52201.47;5070610;28;20635;-69
2021/06/02 02:49:04;;;;;;;5.20;1.37;;;;;;;-144.99;72.90;52177.00;5061082;28;20236;-69
2021/06/02 02:51:41;;;;;;;2.13;1.10;;;;;;;-144.99;72.97;52185.16;5062500;28;20681;-67
2021/06/02 02:54:11;;;;;;;3.80;1.40;;;;;;;-144.99;73.04;52174.97;5067368;28;20228;-66
2021/06/02 02:56:51;;;;;;;1.97;1.10;;;;;;;-144.99;73.04;52166.81;5066201;28;20257;-66
2021/06/02 02:59:24;;;;;;;1.67;1.07;;;;;;;-144.99;73.04;52162.75;5070631;28;20205;-65
2021/06/02 03:01:59;;;;;;;3.27;1.20;;;;;;;-144.99;73.34;52219.81;5061528;28;20227;-66
2021/06/02 03:04:26;;;;;;;1.77;1.47;;;;;;;-144.99;73.56;52191.28;5065866;28;20223;-66
2021/06/02 03:07:00;;;;;;;2.50;1.20;;;;;;;-144.99;73.61;52142.38;5065800;28;20201;-63
2021/06/02 03:09:31;;;;;;;4.43;1.67;;;;;;;-144.99;73.59;52203.50;5067671;28;20209;-69
2021/06/02 03:12:19;;;;;;;2.93;1.20;;;;;;;-144.99;73.84;52162.75;5069734;28;20476;-64
2021/06/02 03:14:49;;;;;;;3.23;2.10;;;;;;;-144.99;73.63;52195.34;5069292;28;20256;-69
2021/06/02 03:17:24;;;;;;;3.03;1.33;;;;;;;-144.99;73.87;52195.34;5072257;28;20231;-64
2021/06/02 03:20:14;;;;;;;3.00;1.40;;;;;;;-144.99;73.90;52195.34;5066763;28;20283;-62
2021/06/02 03:23:05;;;;;;;1.73;1.00;;;;;;;-144.99;74.10;52164.78;5071506;28;20209;-63
2021/06/02 03:25:41;;;;;;;2.17;1.33;;;;;;;-144.99;74.10;52179.06;5068162;28;20288;-65
2021/06/02 03:28:23;;;;;;;3.53;1.73;;;;;;;-144.99;74.07;52185.16;5071484;28;20220;-61
2021/06/02 03:30:56;;;;;;;2.93;1.40;;;;;;;-144.99;74.35;52158.66;5064574;28;20211;-62
2021/06/02 03:34:00;;;;;;;4.83;1.77;;;;;;;-144.99;74.26;52199.44;5067883;28;20205;-63
2021/06/02 03:36:36;;;;;;;3.20;0.97;;;;;;;-144.99;74.24;52191.28;5063983;28;20205;-63
2021/06/02 03:39:13;;;;;;;5.17;1.83;;;;;;;-144.99;74.33;52146.44;5069625;28;20227;-64
2021/06/02 03:42:02;;;;;;;3.23;1.87;;;;;;;-144.99;74.34;52174.97;5070656;28;20238;-63
2021/06/02 03:44:42;;;;;;;1.63;1.40;;;;;;;-144.99;74.41;52203.50;5070554;28;20254;-62
2021/06/02 03:47:22;;;;;;;4.17;1.30;;;;;;;-144.99;74.66;52134.22;5064679;28;20227;-61
2021/06/02 03:49:56;;;;;;;7.43;1.87;;;;;;;-144.99;74.68;52136.25;5066557;28;20693;-59
2021/06/02 03:52:36;;;;;;;2.67;2.33;;;;;;;-144.99;74.79;52134.22;5071070;28;20201;-58
2021/06/02 03:55:10;;;;;;;4.87;1.70;;;;;;;-144.99;75.35;52183.13;5072728;28;20323;-59
2021/06/02 03:57:40;;;;;;;3.77;1.90;;;;;;;-144.99;75.51;52227.97;5069306;28;20232;-60
2021/06/02 04:00:10;;;;;;;4.77;1.80;;;;;;;-144.99;75.54;52187.19;5070457;28;20216;-63
2021/06/02 04:03:06;;;;;;;3.87;1.83;;;;;;;-144.99;75.93;52213.69;5070453;28;20219;-62
2021/06/02 04:05:42;;;;;;;5.27;2.20;;;;;;;-144.99;76.04;52185.16;5071018;28;20288;-62
2021/06/02 04:08:25;;;;;;;4.10;2.03;;;;;;;-144.99;76.06;52170.91;5066374;28;20224;-62
2021/06/02 04:11:11;;;;;;;7.30;2.47;;;;;;;-144.99;75.84;52189.25;5067917;28;20258;-62
2021/06/02 04:13:53;;;;;;;3.87;1.80;;;;;;;-144.99;75.86;52170.91;5070332;28;20204;-63
2021/06/02 04:16:22;;;;;;;5.77;2.33;;;;;;;-144.99;76.00;52211.66;5067388;28;20470;-64
2021/06/02 04:18:49;;;;;;;4.27;2.23;;;;;;;-144.99;76.40;52195.34;5065583;28;20236;-65
2021/06/02 04:21:17;;;;;;;5.03;1.80;;;;;;;-144.99;76.74;52168.84;5070172;28;20207;-62
2021/06/02 04:23:44;;;;;;;2.87;2.10;;;;;;;-144.99;76.61;52187.19;5069873;28;20219;-61
2021/06/02 04:26:15;;;;;;;3.77;2.53;;;;;;;-144.99;76.93;52150.53;5071295;28;20216;-61
2021/06/02 04:28:45;;;;;;;6.10;2.20;;;;;;;-144.99;76.59;52138.28;5070480;28;20246;-61
2021/06/02 04:31:13;;;;;;;4.90;2.03;;;;;;;-144.99;76.39;52187.19;5070589;28;20209;-62
2021/06/02 04:33:41;;;;;;;5.57;2.80;;;;;;;-144.99;76.33;52181.09;5070262;28;20712;-62
2021/06/02 04:36:11;;;;;;;9.07;3.67;;;;;;;-144.99;75.90;52174.97;5070086;28;20555;-62
2021/06/02 04:38:41;;;;;;;15.87;6.07;;;;;;;-144.99;76.19;52181.09;5068016;28;20221;-61
2021/06/02 04:41:09;;;;;;;5.50;3.70;;;;;;;-144.99;75.09;52179.06;5069117;28;20201;-62
2021/06/02 04:43:38;;;;;;;6.17;2.37;;;;;;;-144.99;75.03;52183.13;5069543;28;20629;-62
2021/06/02 04:46:06;;;;;;;2.30;1.60;;;;;;;-144.99;75.47;52158.66;5075251;28;20228;-66
2021/06/02 04:48:35;;;;;;;5.40;2.93;;;;;;;-144.99;73.69;52142.38;5074082;28;20246;-70
2021/06/02 04:51:11;;;;;;;2.60;1.80;;;;;;;-144.99;73.27;52168.84;5070167;28;20227;-70
2021/06/02 04:54:34;;;;;;;7.97;2.70;;;;;;;-144.99;73.12;52117.91;5069857;28;20216;-70
2021/06/02 04:57:35;;;;;;;4.87;2.60;;;;;;;-144.99;73.53;52138.28;5063530;28;20805;-68
2021/06/02 05:00:42;;;;;;;7.17;3.57;;;;;;;-144.99;73.64;52146.44;5065631;28;20205;-71
2021/06/02 05:03:41;;;;;;;7.40;2.77;;;;;;;-144.99;74.29;52132.19;4017757;28;10000695;-68
2021/06/02 05:06:52;;;;;;;9.77;3.67;;;;;;;-144.99;74.43;52152.56;5033265;28;20238;-68
2021/06/02 05:09:56;;;;;;;5.17;3.60;;;;;;;-144.99;74.35;52187.19;5060300;28;20204;-67
2021/06/02 05:13:16;;;;;;;6.00;2.60;;;;;;;-144.99;74.62;52183.13;5063606;28;20686;-67
2021/06/02 05:16:22;;;;;;;11.20;5.23;;;;;;;-144.99;75.17;52138.28;5003852;28;20230;-68
2021/06/02 05:19:47;;;;;;;8.43;4.10;;;;;;;-144.99;74.96;52148.47;5063148;28;20228;-68
2021/06/02 05:22:59;;;;;;;8.57;5.00;;;;;;;-144.99;75.27;52142.38;5059402;28;20205;-67
2021/06/02 05:26:06;;;;;;;13.20;5.13;;;;;;;-144.99;74.91;52187.19;5062435;28;20223;-67
2021/06/02 05:29:19;;;;;;;18.27;8.27;;;;;;;-144.99;75.14;52138.28;5063822;28;20228;-67
2021/06/02 05:32:13;;;;;;;11.43;3.53;;;;;;;-144.99;74.74;52142.38;5064848;28;20208;-68
2021/06/02 05:35:09;;;;;;;7.27;3.93;;;;;;;-144.99;74.67;52146.44;5067329;28;20242;-67
2021/06/02 05:38:10;;;;;;;13.17;4.63;;;;;;;-144.99;74.98;52130.13;5050432;28;20248;-68
2021/06/02 05:40:48;;;;;;;11.60;4.50;;;;;;;-144.99;75.74;52164.78;5066063;28;20269;-67
2021/06/02 05:43:55;;;;;;;19.47;8.97;;;;;;;-144.99;75.27;52119.94;5066756;28;20232;-68
2021/06/02 05:46:55;;;;;;;11.00;4.60;;;;;;;-144.99;75.52;52152.56;5066814;28;20658;-68
2021/06/02 05:49:46;;;;;;;9.03;3.47;;;;;;;-144.99;74.66;52156.63;5063044;28;20201;-68
2021/06/02 05:52:43;;;;;;;9.43;5.27;;;;;;;-144.99;74.96;52154.59;5057802;28;20239;-67
2021/06/02 05:55:48;;;;;;;23.57;8.93;;;;;;;-144.99;74.59;52124.03;5039172;28;20229;-68
2021/06/02 05:58:51;;;;;;;14.03;7.83;;;;;;;-144.99;74.05;52166.81;5021693;28;20829;-69
2021/06/02 06:01:51;;;;;;;4.13;2.93;;;;;;;-144.99;73.36;52154.59;5064051;28;20574;-68
2021/06/02 06:04:56;;;;;;;16.83;6.77;;;;;;;-144.99;73.70;52121.97;5063532;28;20269;-67
2021/06/02 06:08:06;;;;;;;7.97;3.90;;;;;;;-144.99;72.53;52183.13;5057489;28;20228;-66
2021/06/02 06:11:10;;;;;;;9.80;4.93;;;;;;;-144.99;72.19;52154.59;5047117;28;20733;-67
2021/06/02 06:14:09;;;;;;;11.10;4.93;;;;;;;-144.99;72.09;52134.22;5064057;28;20300;-67
2021/06/02 06:16:56;;;;;;;14.53;5.23;;;;;;;-144.99;72.06;52130.13;5040107;28;20685;-66
2021/06/02 06:20:04;;;;;;;8.37;4.03;;;;;;;-144.99;71.40;52128.09;5062697;28;20209;-65
2021/06/02 06:23:10;;;;;;;11.50;4.60;;;;;;;-144.99;70.99;52134.22;5062624;28;20223;-65
2021/06/02 06:25:47;;;;;;;11.07;5.37;;;;;;;-144.99;70.51;52158.66;5063691;28;20200;-65
2021/06/02 06:28:21;;;;;;;6.53;4.47;;;;;;;-144.99;70.00;52134.22;5068603;28;20220;-66
2021/06/02 06:30:50;;;;;;;9.93;6.17;;;;;;;-144.99;68.70;52113.84;5065538;28;20204;-67
2021/06/02 06:33:29;;;;;;;15.17;7.80;;;;;;;-144.99;68.73;52101.59;5059958;28;20690;-64
2021/06/02 06:36:00;;;;;;;9.10;5.37;;;;;;;-144.99;67.99;52142.38;5060368;28;20284;-65
2021/06/02 06:38:50;;;;;;;7.83;3.80;;;;;;;-144.99;67.71;52132.19;5064439;28;20715;-65
2021/06/02 06:41:22;;;;;;;7.00;3.27;;;;;;;-144.99;67.11;52121.97;5065109;28;20226;-65
2021/06/02 06:43:52;;;;;;;14.90;7.17;;;;;;;-144.99;66.70;52113.84;5062100;28;20597;-66
2021/06/02 06:46:22;;;;;;;9.53;3.53;;;;;;;-144.99;66.46;52142.38;5070006;28;20193;-65
2021/06/02 06:48:49;;;;;;;12.43;7.30;;;;;;;-144.99;65.95;52158.66;5065724;28;20336;-63
2021/06/02 06:51:23;;;;;;;10.17;6.13;;;;;;;-144.99;66.18;52126.06;5070451;28;20216;-66
2021/06/02 06:53:55;;;;;;;13.00;6.73;;;;;;;-144.99;66.57;52099.56;5063472;28;20546;-66
2021/06/02 06:56:22;;;;;;;13.73;4.23;;;;;;;-144.99;65.75;52130.13;5069321;28;20548;-66
2021/06/02 06:58:49;;;;;;;7.50;4.13;;;;;;;-144.99;65.77;52134.22;5063770;28;20221;-65
2021/06/02 07:01:16;;;;;;;12.53;6.37;;;;;;;-144.99;65.54;52146.44;5067580;28;20210;-65
2021/06/02 07:03:43;;;;;;;8.70;3.40;;;;;;;-144.99;64.51;52121.97;5067140;28;20212;-66
2021/06/02 07:06:11;;;;;;;10.03;6.67;;;;;;;-144.99;64.25;52121.97;5068582;28;20294;-65
2021/06/02 07:08:45;;;;;;;11.90;6.10;;;;;;;-144.99;63.75;52113.84;5068153;28;20283;-65
2021/06/02 07:11:14;;;;;;;7.13;4.93;;;;;;;-144.99;63.28;52132.19;5066392;28;20292;-67
2021/06/02 07:13:41;;;;;;;10.73;7.27;;;;;;;-144.99;63.29;52130.13;5068396;28;20229;-64
2021/06/02 07:16:11;;;;;;;14.07;5.40;;;;;;;-144.99;62.65;52101.59;5069056;28;20233;-67
2021/06/02 07:18:39;;;;;;;14.83;6.30;;;;;;;-144.99;63.12;52101.59;5068360;28;20240;-66
2021/06/02 07:21:07;;;;;;;9.63;5.00;;;;;;;-144.99;62.32;52134.22;5067678;28;20212;-65
2021/06/02 07:23:33;;;;;;;6.03;2.60;;;;;;;-144.99;61.91;52138.28;5066872;28;20212;-66
2021/06/02 07:26:00;;;;;;;3.40;2.13;;;;;;;-144.99;60.81;52134.22;5068563;28;20671;-66
2021/06/02 07:28:38;;;;;;;6.83;3.70;;;;;;;-144.99;61.41;52121.97;5067982;28;20233;-67
2021/06/02 07:31:08;;;;;;;5.50;3.10;;;;;;;-144.99;61.16;52121.97;5066400;28;20299;-64
2021/06/02 07:33:41;;;;;;;7.53;4.97;;;;;;;-144.99;60.90;52130.13;5067512;28;20205;-65
2021/06/02 07:36:08;;;;;;;13.10;3.20;;;;;;;-144.99;60.65;52130.13;5068432;28;20309;-65
2021/06/02 07:38:35;;;;;;;14.10;5.37;;;;;;;-144.99;60.17;52101.59;5067881;28;20240;-66
2021/06/02 07:41:04;;;;;;;12.80;5.80;;;;;;;-144.99;60.44;52146.44;5067153;28;20271;-67
2021/06/02 07:43:32;;;;;;;11.47;5.10;;;;;;;-144.99;60.03;52128.09;5067727;28;20567;-64
2021/06/02 07:45:58;;;;;;;11.73;4.47;;;;;;;-144.99;60.44;52075.09;5068365;28;20201;-64
2021/06/02 07:48:24;;;;;;;8.77;4.70;;;;;;;-144.99;59.87;52113.84;5067670;28;20220;-65
2021/06/02 07:50:54;;;;;;;4.90;2.93;;;;;;;-144.99;58.75;52142.38;5067268;28;20216;-65
2021/06/02 07:53:20;;;;;;;3.87;2.47;;;;;;;-144.99;58.21;52142.38;5066674;28;20197;-65
2021/06/02 07:55:48;;;;;;;11.10;3.30;;;;;;;-144.99;57.67;52081.22;5067588;28;20221;-66
2021/06/02 07:58:18;;;;;;;5.47;2.37;;;;;;;-144.99;57.14;52097.53;5067504;28;20436;-66
2021/06/02 08:00:48;;;;;;;11.33;5.27;;;;;;;-144.99;56.13;52121.97;5067679;28;20205;-67
2021/06/02 08:03:17;;;;;;;4.27;1.90;;;;;;;-144.99;54.72;52101.59;5064805;28;20223;-65
2021/06/02 08:05:43;;;;;;;14.60;5.80;;;;;;;-144.99;54.61;52085.31;5068654;28;20216;-67
2021/06/02 08:08:18;;;;;;;6.53;3.17;;;;;;;-144.99;54.57;52117.91;5068101;28;20326;-66
2021/06/02 08:10:44;;;;;;;5.23;3.13;;;;;;;-144.99;54.18;52097.53;5066890;28;20225;-66
2021/06/02 08:13:10;;;;;;;8.60;3.90;;;;;;;-144.99;53.96;52097.53;5067395;28;20309;-64
2021/06/02 08:15:36;;;;;;;5.03;2.17;;;;;;;-144.99;53.35;52085.31;5073122;28;20224;-66
2021/06/02 08:18:07;;;;;;;11.27;3.67;;;;;;;-144.99;54.17;52089.38;5077043;28;20777;-65
2021/06/02 08:20:36;;;;;;;9.33;3.53;;;;;;;-144.99;53.15;52073.06;5070943;28;20204;-66
2021/06/02 08:23:06;;;;;;;3.53;2.70;;;;;;;-144.99;52.67;52089.38;5067711;28;20201;-65
2021/06/02 08:25:36;;;;;;;2.93;1.70;;;;;;;-144.99;52.50;52077.16;5067306;28;20216;-66
2021/06/02 08:28:05;;;;;;;4.40;2.20;;;;;;;-144.99;51.96;52089.38;5066620;28;20236;-67
2021/06/02 08:30:31;;;;;;;7.77;2.73;;;;;;;-144.99;52.49;52085.31;5067230;28;20213;-65
2021/06/02 08:32:57;;;;;;;6.10;2.30;;;;;;;-144.99;52.49;52064.91;5063686;28;20238;-66
2021/06/02 08:35:25;;;;;;;7.33;3.27;;;;;;;-144.99;51.80;52109.75;5067995;28;20599;-66
2021/06/02 08:37:55;;;;;;;5.07;2.87;;;;;;;-144.99;51.14;52121.97;5066511;28;20324;-68
2021/06/02 08:40:25;;;;;;;4.07;1.80;;;;;;;-144.99;49.87;52042.50;5063849;28;20279;-65
2021/06/02 08:42:51;;;;;;;5.30;1.60;;;;;;;-144.99;50.01;52101.59;5064923;28;20292;-66
2021/06/02 08:45:19;;;;;;;4.90;1.93;;;;;;;-144.99;49.51;52124.03;5065218;28;20309;-67
2021/06/02 08:47:46;;;;;;;6.97;4.10;;;;;;;-144.99;50.23;52089.38;5066717;28;20229;-65
2021/06/02 08:50:19;;;;;;;6.87;4.67;;;;;;;-144.99;50.20;52056.78;5066822;28;20229;-66
2021/06/02 08:52:47;;;;;;;10.13;3.17;;;;;;;-144.99;49.98;52083.25;5065785;28;20205;-66
2021/06/02 08:55:16;;;;;;;5.73;2.47;;;;;;;-144.99;49.93;52075.09;5063515;28;20316;-67
2021/06/02 08:57:43;;;;;;;5.80;2.00;;;;;;;-144.99;49.40;52107.72;5066143;28;20233;-66
2021/06/02 09:00:14;;;;;;;5.77;3.07;;;;;;;-144.99;49.52;52117.91;5067064;28;20259;-67
2021/06/02 09:02:43;;;;;;;5.97;3.27;;;;;;;-144.99;48.95;52077.16;5066958;28;20225;-67
2021/06/02 09:05:10;;;;;;;9.20;4.57;;;;;;;-144.99;48.57;52101.59;5069013;28;20206;-63
2021/06/02 09:07:38;;;;;;;4.50;2.70;;;;;;;-144.99;48.33;52044.53;5067183;28;20618;-62
2021/06/02 09:10:07;;;;;;;5.80;2.63;;;;;;;-144.99;48.06;52105.69;5065975;28;20286;-63
2021/06/02 09:12:38;;;;;;;4.87;2.77;;;;;;;-144.99;48.18;52089.38;5068140;28;20581;-62
2021/06/02 09:15:11;;;;;;;5.23;2.53;;;;;;;-144.99;48.63;52121.97;5069075;28;20231;-62
2021/06/02 09:17:56;;;;;;;13.20;4.73;;;;;;;-144.99;48.84;52085.31;5065144;28;20233;-62
2021/06/02 09:20:34;;;;;;;7.93;2.60;;;;;;;-144.99;49.05;52056.78;5064853;28;20786;-62
2021/06/02 09:23:00;;;;;;;9.10;2.60;;;;;;;-144.99;48.85;52093.44;5061896;28;20647;-63
2021/06/02 09:25:28;;;;;;;6.77;3.37;;;;;;;-144.99;48.46;52064.91;5064402;28;20217;-62
2021/06/02 09:27:56;;;;;;;7.40;2.50;;;;;;;-144.99;47.64;52028.22;5066285;28;20233;-63
2021/06/02 09:30:29;;;;;;;5.50;2.00;;;;;;;-144.99;47.55;52060.84;5065965;28;20207;-63
2021/06/02 09:32:56;;;;;;;4.13;2.37;;;;;;;-144.99;46.08;52036.38;5063412;28;20226;-66
2021/06/02 09:35:34;;;;;;;7.17;2.10;;;;;;;-144.99;45.80;52056.78;5064404;28;20233;-61
2021/06/02 09:38:01;;;;;;;5.33;2.43;;;;;;;-144.99;46.44;52079.19;5065533;28;20695;-61
2021/06/02 09:40:32;;;;;;;8.53;4.23;;;;;;;-144.99;46.55;52089.38;5065892;28;20199;-62
2021/06/02 09:42:59;;;;;;;3.57;2.00;;;;;;;-144.99;46.55;52073.06;5062915;28;20762;-62
2021/06/02 09:45:25;;;;;;;6.47;2.73;;;;;;;-144.99;47.03;52052.69;5064111;28;20665;-63
2021/06/02 09:47:53;;;;;;;6.67;3.43;;;;;;;-144.99;47.13;52048.63;5065217;28;20229;-62
2021/06/02 09:50:25;;;;;;;7.10;3.47;;;;;;;-144.99;47.50;52036.38;5062260;28;20208;-62
2021/06/02 09:52:58;;;;;;;7.07;3.37;;;;;;;-144.99;47.15;52064.91;5064227;28;20431;-61
2021/06/02 09:55:26;;;;;;;5.40;2.33;;;;;;;-144.99;47.77;52089.38;5065469;28;20243;-61
2021/06/02 09:58:12;;;;;;;7.00;2.43;;;;;;;-144.99;47.62;52048.63;5063871;28;20223;-62
2021/06/02 10:00:40;;;;;;;4.87;2.30;;;;;;;-144.99;47.45;52064.91;5066568;28;20243;-61
2021/06/02 10:03:13;;;;;;;3.67;1.60;;;;;;;-144.99;47.85;52036.38;5065313;28;20222;-64
2021/06/02 10:05:41;;;;;;;4.87;3.20;;;;;;;-144.99;46.93;52034.34;5066427;28;20212;-62
2021/06/02 10:08:10;;;;;;;6.80;2.50;;;;;;;-144.99;46.46;52036.38;5062823;28;20225;-64
2021/06/02 10:10:37;;;;;;;7.43;2.87;;;;;;;-144.99;46.04;52044.53;5065959;28;20516;-63
2021/06/02 10:13:09;;;;;;;6.03;3.13;;;;;;;-144.99;45.20;52064.91;5066053;28;20218;-63
2021/06/02 10:15:39;;;;;;;9.20;2.87;;;;;;;-144.99;44.86;51983.41;5063680;28;20228;-64
2021/06/02 10:18:22;;;;;;;12.77;2.63;;;;;;;-144.99;44.69;52020.09;5063787;28;20220;-65
2021/06/02 10:21:00;;;;;;;3.43;2.10;;;;;;;-144.99;44.17;51991.56;5068890;28;20605;-64
2021/06/02 10:23:26;;;;;;;5.97;2.33;;;;;;;-144.99;44.48;51975.25;5070025;28;20320;-66
2021/06/02 10:25:53;;;;;;;3.80;2.60;;;;;;;-144.99;44.63;52016.00;5068849;28;20209;-64
2021/06/02 10:28:23;;;;;;;7.80;4.57;;;;;;;-144.99;44.51;51983.41;5065303;28;20316;-63
2021/06/02 10:30:52;;;;;;;4.00;2.23;;;;;;;-144.99;44.79;52022.13;5069680;28;20246;-64
2021/06/02 10:33:18;;;;;;;5.20;2.63;;;;;;;-144.99;44.51;52003.78;5066097;28;20239;-62
2021/06/02 10:35:45;;;;;;;6.23;3.20;;;;;;;-144.99;44.67;51995.63;5069583;28;20223;-62
2021/06/02 10:38:14;;;;;;;6.70;3.10;;;;;;;-144.99;44.80;52024.16;5067548;28;20779;-64
2021/06/02 10:40:41;;;;;;;5.37;2.87;;;;;;;-144.99;43.66;51991.56;5068952;28;20213;-64
2021/06/02 10:43:16;;;;;;;3.60;1.97;;;;;;;-144.99;43.59;51999.69;5070407;28;20238;-64
2021/06/02 10:45:53;;;;;;;3.30;1.90;;;;;;;-144.99;43.25;52028.22;5078165;28;20278;-62
2021/06/02 10:48:38;;;;;;;4.43;2.03;;;;;;;-144.99;43.32;51997.66;5071560;28;20351;-64
2021/06/02 10:51:07;;;;;;;5.37;2.10;;;;;;;-144.99;43.38;51971.16;5066078;28;20298;-64
2021/06/02 10:53:33;;;;;;;7.03;2.37;;;;;;;-144.99;42.85;51999.69;5068884;28;20220;-64
2021/06/02 10:56:01;;;;;;;5.57;1.97;;;;;;;-144.99;43.08;51989.50;5068554;28;20700;-63
2021/06/02 10:58:31;;;;;;;8.17;3.37;;;;;;;-144.99;42.79;51991.56;5066791;28;20227;-62
2021/06/02 11:01:17;;;;;;;4.27;2.20;;;;;;;-144.99;43.15;51999.69;5068707;28;20414;-63
2021/06/02 11:03:45;;;;;;;4.47;1.97;;;;;;;-144.99;42.83;51948.75;5067014;28;20219;-66
2021/06/02 11:06:34;;;;;;;4.17;2.00;;;;;;;-144.99;42.37;51991.56;5068062;28;20725;-63
2021/06/02 11:09:08;;;;;;;4.93;2.87;;;;;;;-144.99;41.89;51987.47;5066277;28;20271;-63
2021/06/02 11:11:35;;;;;;;7.50;3.20;;;;;;;-144.99;42.09;51956.91;5068499;28;20212;-63
2021/06/02 11:14:32;;;;;;;6.00;2.87;;;;;;;-144.99;41.78;51950.78;5068944;28;20673;-64
2021/06/02 11:17:26;;;;;;;6.83;2.80;;;;;;;-144.99;41.38;51971.16;5065196;28;20317;-63
2021/06/02 11:19:54;;;;;;;4.90;2.10;;;;;;;-144.99;41.21;51983.41;5066564;28;20224;-63
2021/06/02 11:22:26;;;;;;;11.93;2.90;;;;;;;-144.99;41.62;51971.16;5068553;28;20232;-63
2021/06/02 11:25:01;;;;;;;3.63;2.33;;;;;;;-144.99;41.37;51971.16;5069048;28;20201;-63
2021/06/02 11:27:35;;;;;;;6.50;2.83;;;;;;;-144.99;41.53;51954.88;5065346;28;20311;-63
2021/06/02 11:30:24;;;;;;;6.53;2.90;;;;;;;-144.99;40.96;51954.88;5061928;28;20212;-65
2021/06/02 11:33:08;;;;;;;8.83;2.90;;;;;;;-144.99;41.25;51999.69;5064025;28;20238;-64
2021/06/02 11:36:05;;;;;;;4.43;3.00;;;;;;;-144.99;41.61;51979.31;5066175;28;20232;-62
2021/06/02 11:38:34;;;;;;;4.57;2.23;;;;;;;-144.99;41.45;51954.88;5066613;28;20238;-62
2021/06/02 11:41:00;;;;;;;10.73;3.03;;;;;;;-144.99;41.98;51950.78;5065237;28;20299;-63
2021/06/02 11:43:27;;;;;;;4.20;2.40;;;;;;;-144.99;41.96;51975.25;5068017;28;20270;-63
2021/06/02 11:45:59;;;;;;;6.90;2.97;;;;;;;-144.99;41.22;51938.56;5067881;28;20200;-62
2021/06/02 11:48:39;;;;;;;5.87;2.00;;;;;;;-144.99;40.90;51999.69;5067824;28;20232;-64
2021/06/02 11:51:13;;;;;;;4.63;3.07;;;;;;;-144.99;41.16;52028.22;5066710;28;20619;-63
2021/06/02 11:53:42;;;;;;;7.27;3.43;;;;;;;-144.99;41.31;52003.78;5067829;28;20756;-63
2021/06/02 11:56:12;;;;;;;6.60;3.47;;;;;;;-144.99;41.78;51971.16;5067828;28;20320;-63
2021/06/02 11:58:39;;;;;;;6.67;4.50;;;;;;;-144.99;41.62;52050.66;5067380;28;20767;-66
2021/06/02 12:01:05;;;;;;;7.13;3.10;;;;;;;-144.99;41.88;52040.47;5066687;28;20812;-62
2021/06/02 12:03:31;;;;;;;4.53;3.20;;;;;;;-144.99;41.81;52040.47;5068028;28;20670;-64